Time;durP1;ratioP1;P1;durP2;ratioP2;P2;SDS_P1;SDS_P2;PMS_P1;PMS_P2;Temp;Humidity;BMP_temperature;BMP_pressure;BME280_temperature;BME280_humidity;BME280_pressure;Samples;Min_cycle;Max_cycle;Signal;HPM_P1;HPM_P2
2023/12/13 00:01:23;;;;;;;1.85;1.15;;;;;;;;;;5023630;28;20050;-80
2023/12/13 00:03:51;;;;;;;2.67;1.95;;;;;;;;;;5016189;28;20053;-79
2023/12/13 00:06:18;;;;;;;1.55;1.15;;;;;;;;;;5041132;28;20539;-79
2023/12/13 00:08:48;;;;;;;5.32;1.50;;;;;;;;;;5065274;28;20372;-79
2023/12/13 00:11:16;;;;;;;3.20;1.20;;;;;;;;;;5066990;28;20048;-79
2023/12/13 00:13:45;;;;;;;1.88;1.27;;;;;;;;;;5041047;28;20106;-79
2023/12/13 00:16:13;;;;;;;1.40;1.20;;;;;;;;;;5019738;28;20052;-79
2023/12/13 00:18:46;;;;;;;2.42;1.60;;;;;;;;;;5016448;28;20049;-79
2023/12/13 00:21:17;;;;;;;4.20;1.65;;;;;;;;;;5018672;28;20041;-79
2023/12/13 00:23:45;;;;;;;2.45;1.67;;;;;;;;;;5040331;28;20045;-79
2023/12/13 00:26:14;;;;;;;3.83;2.22;;;;;;;;;;5036413;28;20069;-79
2023/12/13 00:28:42;;;;;;;6.57;2.00;;;;;;;;;;5048975;28;20059;-79
2023/12/13 00:31:11;;;;;;;2.28;1.50;;;;;;;;;;5013028;28;20059;-79
2023/12/13 00:33:40;;;;;;;2.35;1.60;;;;;;;;;;5039365;28;20049;-79
2023/12/13 00:36:10;;;;;;;7.30;1.40;;;;;;;;;;5007635;28;20411;-79
2023/12/13 00:38:38;;;;;;;1.65;1.30;;;;;;;;;;5033575;28;20057;-79
2023/12/13 00:41:05;;;;;;;3.45;1.80;;;;;;;;;;5022638;28;20050;-79
2023/12/13 00:43:33;;;;;;;3.38;1.73;;;;;;;;;;5009397;28;20054;-79
2023/12/13 00:46:10;;;;;;;2.80;2.03;;;;;;;;;;5035497;28;20055;-79
2023/12/13 00:48:40;;;;;;;5.75;2.25;;;;;;;;;;5041189;28;20072;-79
2023/12/13 00:51:17;;;;;;;4.53;2.20;;;;;;;;;;5026947;28;20057;-80
2023/12/13 00:53:48;;;;;;;5.88;1.90;;;;;;;;;;4997215;28;20054;-79
2023/12/13 00:56:15;;;;;;;1.88;1.77;;;;;;;;;;5019430;28;20049;-79
2023/12/13 00:58:47;;;;;;;2.08;1.40;;;;;;;;;;5035080;28;20050;-79
2023/12/13 01:01:16;;;;;;;7.47;1.88;;;;;;;;;;5002343;28;20416;-79
2023/12/13 01:03:46;;;;;;;2.97;1.38;;;;;;;;;;5019705;28;20049;-79
2023/12/13 01:06:13;;;;;;;1.92;1.08;;;;;;;;;;5011895;28;20065;-79
2023/12/13 01:08:42;;;;;;;4.68;1.33;;;;;;;;;;5040256;28;20049;-79
2023/12/13 01:11:11;;;;;;;2.75;1.48;;;;;;;;;;5022396;28;20048;-79
2023/12/13 01:13:39;;;;;;;2.60;1.27;;;;;;;;;;5050382;28;20506;-79
2023/12/13 01:16:07;;;;;;;2.63;1.45;;;;;;;;;;5023968;28;20049;-79
2023/12/13 01:18:42;;;;;;;3.55;1.20;;;;;;;;;;5022589;28;20052;-79
2023/12/13 01:21:11;;;;;;;2.38;1.30;;;;;;;;;;5006397;28;20054;-79
2023/12/13 01:23:42;;;;;;;2.85;1.10;;;;;;;;;;4999169;28;20389;-79
2023/12/13 01:26:16;;;;;;;2.95;1.77;;;;;;;;;;5047700;28;20049;-79
2023/12/13 01:28:43;;;;;;;4.20;0.93;;;;;;;;;;5025367;28;20049;-79
2023/12/13 01:31:11;;;;;;;5.60;1.55;;;;;;;;;;5024609;28;20049;-79
2023/12/13 01:33:40;;;;;;;1.95;1.60;;;;;;;;;;5018819;28;20049;-79
2023/12/13 01:36:11;;;;;;;2.97;1.00;;;;;;;;;;4993473;28;20110;-79
2023/12/13 01:38:39;;;;;;;1.48;0.80;;;;;;;;;;5021192;28;20034;-79
2023/12/13 01:41:07;;;;;;;2.13;1.13;;;;;;;;;;5028555;28;20492;-79
2023/12/13 01:43:36;;;;;;;4.32;2.33;;;;;;;;;;4998941;28;20114;-79
2023/12/13 01:46:06;;;;;;;4.25;1.27;;;;;;;;;;5010682;28;20053;-79
2023/12/13 01:48:36;;;;;;;3.63;1.02;;;;;;;;;;5012456;28;20060;-79
2023/12/13 01:51:09;;;;;;;3.83;1.20;;;;;;;;;;5008743;28;20053;-79
2023/12/13 01:53:39;;;;;;;1.67;1.10;;;;;;;;;;5045720;28;20052;-80
2023/12/13 01:56:07;;;;;;;4.32;1.30;;;;;;;;;;5051495;28;20055;-79
2023/12/13 01:58:39;;;;;;;3.13;2.55;;;;;;;;;;5034962;28;20052;-79
2023/12/13 02:01:11;;;;;;;2.78;1.00;;;;;;;;;;5055214;28;20045;-79
2023/12/13 02:03:43;;;;;;;1.65;0.88;;;;;;;;;;5041184;28;20060;-79
2023/12/13 02:06:14;;;;;;;1.83;1.00;;;;;;;;;;5011969;28;20057;-79
2023/12/13 02:08:42;;;;;;;3.58;0.93;;;;;;;;;;5018313;28;20049;-79
2023/12/13 02:11:09;;;;;;;1.65;0.98;;;;;;;;;;5022170;28;20061;-79
2023/12/13 02:13:41;;;;;;;1.55;0.85;;;;;;;;;;5026595;28;20049;-80
2023/12/13 02:16:09;;;;;;;1.50;0.90;;;;;;;;;;5024463;28;20060;-80
2023/12/13 02:18:38;;;;;;;3.00;1.08;;;;;;;;;;5032015;28;20053;-80
2023/12/13 02:21:06;;;;;;;0.85;0.60;;;;;;;;;;5031960;28;20049;-79
2023/12/13 02:23:38;;;;;;;3.25;0.98;;;;;;;;;;5047340;28;20044;-79
2023/12/13 02:26:06;;;;;;;1.15;0.90;;;;;;;;;;5024443;28;20404;-79
2023/12/13 02:28:35;;;;;;;1.75;0.98;;;;;;;;;;5031615;28;20051;-79
2023/12/13 02:31:03;;;;;;;1.10;0.80;;;;;;;;;;5047128;28;20060;-79
2023/12/13 02:33:33;;;;;;;0.75;0.75;;;;;;;;;;5043505;28;20057;-79
2023/12/13 02:36:03;;;;;;;1.70;0.80;;;;;;;;;;5025155;28;20054;-79
2023/12/13 02:38:33;;;;;;;2.50;0.77;;;;;;;;;;5046360;28;20068;-79
2023/12/13 02:41:04;;;;;;;1.30;0.75;;;;;;;;;;5013159;28;20060;-79
2023/12/13 02:43:32;;;;;;;2.38;0.90;;;;;;;;;;5019971;28;20062;-79
2023/12/13 02:45:59;;;;;;;0.70;0.50;;;;;;;;;;5006601;28;20072;-79
2023/12/13 02:48:26;;;;;;;1.95;1.00;;;;;;;;;;5021766;28;20049;-79
2023/12/13 02:50:53;;;;;;;0.90;0.85;;;;;;;;;;5044223;28;20415;-79
2023/12/13 02:53:21;;;;;;;1.67;0.90;;;;;;;;;;5013224;28;20071;-80
2023/12/13 02:55:50;;;;;;;1.40;1.00;;;;;;;;;;5012731;28;20045;-80
2023/12/13 02:58:19;;;;;;;1.48;1.27;;;;;;;;;;5050196;28;20060;-80
2023/12/13 03:00:46;;;;;;;1.55;1.10;;;;;;;;;;5007353;28;20400;-80
2023/12/13 03:03:13;;;;;;;1.10;0.90;;;;;;;;;;5019383;28;20053;-80
2023/12/13 03:05:43;;;;;;;1.60;0.90;;;;;;;;;;5026413;28;20037;-80
2023/12/13 03:08:15;;;;;;;4.65;1.17;;;;;;;;;;5013512;28;20057;-80
2023/12/13 03:10:45;;;;;;;1.80;1.45;;;;;;;;;;5031166;28;20051;-80
2023/12/13 03:13:14;;;;;;;1.30;0.82;;;;;;;;;;5022654;28;20049;-80
2023/12/13 03:15:45;;;;;;;1.73;1.08;;;;;;;;;;5025827;28;20050;-80
2023/12/13 03:18:12;;;;;;;1.10;1.00;;;;;;;;;;5046501;28;20049;-80
2023/12/13 03:20:39;;;;;;;1.45;1.00;;;;;;;;;;5016518;28;20049;-81
2023/12/13 03:23:10;;;;;;;1.17;1.08;;;;;;;;;;5046751;28;20484;-80
2023/12/13 03:25:41;;;;;;;3.15;0.98;;;;;;;;;;5017277;28;20455;-80
2023/12/13 03:28:10;;;;;;;1.30;1.08;;;;;;;;;;5026971;28;20408;-79
2023/12/13 03:30:37;;;;;;;1.75;1.02;;;;;;;;;;5039941;28;20052;-79
2023/12/13 03:33:06;;;;;;;1.15;0.90;;;;;;;;;;5043226;28;20053;-79
2023/12/13 03:35:33;;;;;;;4.30;1.50;;;;;;;;;;5033699;28;20044;-79
2023/12/13 03:38:03;;;;;;;2.35;1.33;;;;;;;;;;5028681;28;20415;-79
2023/12/13 03:40:32;;;;;;;1.60;1.20;;;;;;;;;;5009737;28;20049;-79
2023/12/13 03:43:00;;;;;;;1.77;0.98;;;;;;;;;;5026756;28;20053;-79
2023/12/13 03:45:27;;;;;;;3.75;0.90;;;;;;;;;;5027597;28;20045;-79
2023/12/13 03:47:55;;;;;;;1.23;0.90;;;;;;;;;;5008214;28;20569;-79
2023/12/13 03:50:26;;;;;;;2.55;1.00;;;;;;;;;;5026801;28;20051;-80
2023/12/13 03:52:56;;;;;;;1.67;1.10;;;;;;;;;;5014575;28;20061;-80
2023/12/13 03:55:24;;;;;;;1.20;0.80;;;;;;;;;;5028065;28;20053;-80
2023/12/13 03:57:51;;;;;;;1.83;0.70;;;;;;;;;;5001549;28;20063;-80
2023/12/13 04:00:23;;;;;;;1.35;1.05;;;;;;;;;;5034936;28;20052;-80
2023/12/13 04:02:50;;;;;;;1.75;1.15;;;;;;;;;;5006392;28;20060;-80
2023/12/13 04:05:17;;;;;;;3.03;1.80;;;;;;;;;;5022167;28;20061;-80
2023/12/13 04:07:51;;;;;;;1.40;1.00;;;;;;;;;;5030829;28;20057;-80
2023/12/13 04:10:20;;;;;;;4.15;0.93;;;;;;;;;;5009907;28;20046;-80
2023/12/13 04:12:47;;;;;;;3.90;1.10;;;;;;;;;;5026038;28;20060;-80
2023/12/13 04:15:17;;;;;;;1.77;0.90;;;;;;;;;;5027067;28;20049;-79
2023/12/13 04:17:47;;;;;;;2.53;1.10;;;;;;;;;;5014674;28;20052;-79
2023/12/13 04:20:14;;;;;;;1.33;0.75;;;;;;;;;;5048362;28;20049;-79
2023/12/13 04:22:41;;;;;;;3.00;0.80;;;;;;;;;;5023632;28;20069;-79
2023/12/13 04:25:12;;;;;;;2.75;0.77;;;;;;;;;;5033019;28;20061;-79
2023/12/13 04:27:43;;;;;;;2.17;0.77;;;;;;;;;;5027043;28;20059;-79
2023/12/13 04:30:12;;;;;;;0.60;0.60;;;;;;;;;;5011243;28;20079;-79
2023/12/13 04:32:41;;;;;;;4.20;1.13;;;;;;;;;;4995466;28;20052;-79
2023/12/13 04:35:09;;;;;;;1.38;1.02;;;;;;;;;;5028069;28;20053;-79
2023/12/13 04:37:39;;;;;;;2.03;1.08;;;;;;;;;;4996745;28;20480;-79
2023/12/13 04:40:09;;;;;;;0.85;0.60;;;;;;;;;;5008794;28;20053;-79
2023/12/13 04:42:40;;;;;;;2.42;1.92;;;;;;;;;;5007921;28;20415;-79
2023/12/13 04:45:10;;;;;;;0.98;0.80;;;;;;;;;;5011747;28;20056;-79
2023/12/13 04:47:37;;;;;;;2.75;1.10;;;;;;;;;;4998828;28;20408;-79
2023/12/13 04:50:05;;;;;;;2.08;0.82;;;;;;;;;;5015502;28;20038;-79
2023/12/13 04:52:35;;;;;;;1.23;1.13;;;;;;;;;;4986722;28;20041;-79
2023/12/13 04:55:03;;;;;;;0.95;0.73;;;;;;;;;;5017465;28;20049;-79
2023/12/13 04:57:33;;;;;;;0.98;0.88;;;;;;;;;;4994715;28;20057;-79
2023/12/13 05:00:04;;;;;;;1.10;0.95;;;;;;;;;;5012038;28;20053;-79
2023/12/13 05:02:36;;;;;;;1.33;0.82;;;;;;;;;;5014904;28;20049;-79
2023/12/13 05:05:03;;;;;;;2.10;0.80;;;;;;;;;;5041414;28;20041;-79
2023/12/13 05:07:32;;;;;;;2.80;0.90;;;;;;;;;;4998693;28;20046;-79
2023/12/13 05:10:02;;;;;;;1.52;0.90;;;;;;;;;;5003435;28;20062;-79
2023/12/13 05:12:32;;;;;;;1.75;1.10;;;;;;;;;;5028162;28;20064;-79
2023/12/13 05:15:04;;;;;;;2.67;1.23;;;;;;;;;;5033979;28;20517;-79
2023/12/13 05:17:31;;;;;;;1.90;1.65;;;;;;;;;;5035720;28;20053;-79
2023/12/13 05:20:03;;;;;;;3.47;3.17;;;;;;;;;;5005360;28;20057;-79
2023/12/13 05:22:31;;;;;;;2.13;1.75;;;;;;;;;;4998538;28;20531;-78
2023/12/13 05:24:58;;;;;;;2.67;2.00;;;;;;;;;;5010606;28;20056;-78
2023/12/13 05:27:25;;;;;;;1.73;1.48;;;;;;;;;;4999389;28;20046;-79
2023/12/13 05:29:53;;;;;;;1.48;1.17;;;;;;;;;;5022213;28;20056;-79
2023/12/13 05:32:23;;;;;;;5.40;1.52;;;;;;;;;;5015247;28;20049;-79
2023/12/13 05:34:51;;;;;;;2.67;1.27;;;;;;;;;;4999293;28;20049;-78
2023/12/13 05:37:20;;;;;;;2.33;2.00;;;;;;;;;;5008358;28;20044;-78
2023/12/13 05:39:50;;;;;;;2.53;2.30;;;;;;;;;;5023669;28;20046;-78
2023/12/13 05:42:17;;;;;;;1.42;1.20;;;;;;;;;;4992922;28;20072;-78
2023/12/13 05:44:46;;;;;;;1.45;1.00;;;;;;;;;;5004156;28;20046;-79
2023/12/13 05:47:16;;;;;;;4.82;1.60;;;;;;;;;;5018144;28;20060;-79
2023/12/13 05:49:47;;;;;;;2.42;1.58;;;;;;;;;;4999042;28;20057;-78
2023/12/13 05:52:14;;;;;;;2.53;1.67;;;;;;;;;;4996412;28;20396;-79
2023/12/13 05:54:41;;;;;;;1.70;1.33;;;;;;;;;;5011659;28;20049;-79
2023/12/13 05:57:11;;;;;;;1.88;1.38;;;;;;;;;;5014986;28;20060;-79
2023/12/13 05:59:39;;;;;;;3.22;1.52;;;;;;;;;;5022797;28;20053;-79
2023/12/13 06:02:09;;;;;;;3.53;1.67;;;;;;;;;;5015404;28;20053;-79
2023/12/13 06:04:36;;;;;;;2.15;1.20;;;;;;;;;;5006869;28;20064;-79
2023/12/13 06:07:07;;;;;;;1.58;1.30;;;;;;;;;;5015374;28;20053;-79
2023/12/13 06:09:37;;;;;;;1.90;1.20;;;;;;;;;;5023666;28;20053;-79
2023/12/13 06:12:07;;;;;;;4.25;3.03;;;;;;;;;;5014394;28;20056;-79
2023/12/13 06:14:34;;;;;;;3.60;2.63;;;;;;;;;;5012650;28;20053;-79
2023/12/13 06:17:01;;;;;;;6.65;3.45;;;;;;;;;;4998219;28;20076;-78
2023/12/13 06:19:29;;;;;;;4.57;2.78;;;;;;;;;;4999784;28;20060;-79
2023/12/13 06:21:57;;;;;;;2.70;1.83;;;;;;;;;;5018646;28;20049;-79
2023/12/13 06:24:27;;;;;;;5.13;2.53;;;;;;;;;;5021865;28;20045;-79
2023/12/13 06:26:57;;;;;;;7.50;2.30;;;;;;;;;;5014799;28;20419;-78
2023/12/13 06:29:24;;;;;;;5.75;2.13;;;;;;;;;;5035000;28;20610;-79
2023/12/13 06:31:51;;;;;;;2.72;1.40;;;;;;;;;;5014106;28;20468;-79
2023/12/13 06:34:22;;;;;;;1.77;1.23;;;;;;;;;;5022894;28;20064;-78
2023/12/13 06:36:49;;;;;;;1.95;1.45;;;;;;;;;;4998189;28;20055;-78
2023/12/13 06:39:21;;;;;;;4.18;2.22;;;;;;;;;;5022409;28;20053;-78
2023/12/13 06:41:52;;;;;;;1.73;1.55;;;;;;;;;;5012494;28;20423;-78
2023/12/13 06:44:24;;;;;;;5.28;4.78;;;;;;;;;;4993462;28;20053;-79
2023/12/13 06:46:54;;;;;;;4.68;3.15;;;;;;;;;;4994946;28;20515;-79
2023/12/13 06:49:27;;;;;;;3.03;2.45;;;;;;;;;;5026584;28;20480;-79
2023/12/13 06:51:56;;;;;;;2.83;1.85;;;;;;;;;;5031406;28;20049;-79
2023/12/13 06:54:25;;;;;;;2.47;1.10;;;;;;;;;;4998836;28;20468;-79
2023/12/13 06:56:54;;;;;;;1.70;1.30;;;;;;;;;;5024600;28;20060;-78
2023/12/13 06:59:21;;;;;;;3.38;1.52;;;;;;;;;;5014322;28;20057;-79
2023/12/13 07:01:51;;;;;;;2.28;1.30;;;;;;;;;;5014416;28;20052;-78
2023/12/13 07:04:18;;;;;;;1.38;1.17;;;;;;;;;;5030642;28;20415;-79
2023/12/13 07:06:48;;;;;;;2.33;1.23;;;;;;;;;;5031045;28;20404;-79
2023/12/13 07:09:18;;;;;;;4.28;1.45;;;;;;;;;;4995580;28;20056;-79
2023/12/13 07:11:47;;;;;;;1.52;1.25;;;;;;;;;;5012868;28;20049;-79
2023/12/13 07:14:16;;;;;;;1.83;1.48;;;;;;;;;;4997856;28;20423;-79
2023/12/13 07:16:43;;;;;;;1.95;1.50;;;;;;;;;;5014364;28;20046;-79
2023/12/13 07:19:10;;;;;;;1.80;1.40;;;;;;;;;;4992019;28;20058;-79
2023/12/13 07:21:40;;;;;;;2.50;0.98;;;;;;;;;;5026763;28;20049;-79
2023/12/13 07:24:11;;;;;;;2.67;1.90;;;;;;;;;;5008295;28;20048;-79
2023/12/13 07:26:38;;;;;;;3.80;2.33;;;;;;;;;;5013945;28;20045;-79
2023/12/13 07:29:05;;;;;;;4.20;2.40;;;;;;;;;;5029972;28;20056;-79
2023/12/13 07:31:39;;;;;;;2.78;1.65;;;;;;;;;;5012025;28;20053;-79
2023/12/13 07:34:07;;;;;;;1.83;1.73;;;;;;;;;;5011171;28;20052;-79
2023/12/13 07:36:34;;;;;;;4.13;3.20;;;;;;;;;;5021728;28;20053;-78
2023/12/13 07:39:04;;;;;;;5.40;3.25;;;;;;;;;;5015398;28;20403;-78
2023/12/13 07:41:34;;;;;;;11.23;3.58;;;;;;;;;;4993895;28;20046;-78
2023/12/13 07:44:04;;;;;;;4.78;3.17;;;;;;;;;;4994840;28;20060;-78
2023/12/13 07:46:31;;;;;;;3.03;2.72;;;;;;;;;;4996370;28;20502;-78
2023/12/13 07:49:03;;;;;;;3.60;2.83;;;;;;;;;;5014663;28;20056;-80
2023/12/13 07:51:33;;;;;;;2.75;2.47;;;;;;;;;;5044572;23;20071;-80
2023/12/13 07:54:01;;;;;;;2.92;2.17;;;;;;;;;;5048554;28;20052;-80
2023/12/13 07:56:28;;;;;;;3.30;2.80;;;;;;;;;;5080402;28;20044;-80
2023/12/13 07:58:58;;;;;;;4.63;3.30;;;;;;;;;;5077547;28;20051;-80
2023/12/13 08:01:26;;;;;;;4.28;3.00;;;;;;;;;;5054461;28;20044;-80
2023/12/13 08:03:53;;;;;;;3.88;3.13;;;;;;;;;;5043264;28;20067;-80
2023/12/13 08:06:22;;;;;;;4.15;3.25;;;;;;;;;;5036548;28;20052;-80
2023/12/13 08:08:49;;;;;;;2.85;2.30;;;;;;;;;;5067268;28;20049;-80
2023/12/13 08:11:16;;;;;;;2.72;2.10;;;;;;;;;;5046369;28;20041;-80
2023/12/13 08:13:46;;;;;;;3.10;2.38;;;;;;;;;;5031945;28;20053;-80
2023/12/13 08:16:13;;;;;;;6.75;2.85;;;;;;;;;;5035219;28;20049;-80
2023/12/13 08:18:43;;;;;;;4.95;2.80;;;;;;;;;;5050574;28;20041;-80
2023/12/13 08:21:12;;;;;;;4.93;3.38;;;;;;;;;;5044264;28;20056;-80
2023/12/13 08:23:41;;;;;;;4.25;3.50;;;;;;;;;;5049308;28;20064;-80
2023/12/13 08:26:12;;;;;;;8.05;4.00;;;;;;;;;;5048493;28;20048;-80
2023/12/13 08:28:39;;;;;;;7.35;4.50;;;;;;;;;;5049702;28;20052;-80
2023/12/13 08:31:07;;;;;;;8.52;5.60;;;;;;;;;;5048318;28;20060;-80
2023/12/13 08:33:35;;;;;;;8.30;6.50;;;;;;;;;;5052873;28;20057;-80
2023/12/13 08:36:04;;;;;;;12.48;7.30;;;;;;;;;;5049275;28;20049;-79
2023/12/13 08:38:35;;;;;;;21.43;6.90;;;;;;;;;;5019099;28;20139;-79
2023/12/13 08:41:07;;;;;;;18.23;8.10;;;;;;;;;;5066642;28;20051;-79
2023/12/13 08:43:36;;;;;;;16.23;7.15;;;;;;;;;;5059776;28;20044;-79
2023/12/13 08:46:04;;;;;;;11.43;5.70;;;;;;;;;;5072408;28;20040;-78
2023/12/13 08:48:32;;;;;;;14.65;6.10;;;;;;;;;;5061068;28;20051;-79
2023/12/13 08:50:59;;;;;;;8.30;4.75;;;;;;;;;;5071586;28;20743;-79
2023/12/13 08:53:26;;;;;;;14.82;4.88;;;;;;;;;;5037587;28;20051;-79
2023/12/13 08:55:57;;;;;;;5.07;3.63;;;;;;;;;;5044199;28;20045;-79
2023/12/13 08:58:25;;;;;;;5.15;2.97;;;;;;;;;;5045378;28;20056;-79
2023/12/13 09:00:52;;;;;;;3.42;2.72;;;;;;;;;;5053140;28;20053;-79
2023/12/13 09:03:20;;;;;;;2.67;1.83;;;;;;;;;;5038003;28;20051;-79
2023/12/13 09:05:48;;;;;;;9.45;3.40;;;;;;;;;;5052970;28;20053;-78
2023/12/13 09:08:21;;;;;;;3.03;2.73;;;;;;;;;;5051505;28;20403;-78
2023/12/13 09:10:51;;;;;;;5.00;1.83;;;;;;;;;;5045659;28;20049;-78
2023/12/13 09:13:18;;;;;;;4.47;1.70;;;;;;;;;;5036820;28;20052;-79
2023/12/13 09:15:49;;;;;;;2.40;1.60;;;;;;;;;;5054271;28;20494;-78
2023/12/13 09:18:21;;;;;;;2.13;1.48;;;;;;;;;;5032196;28;20412;-78
2023/12/13 09:20:48;;;;;;;2.03;1.42;;;;;;;;;;5062255;28;20040;-79
2023/12/13 09:23:21;;;;;;;3.55;1.38;;;;;;;;;;5057419;28;20049;-78
2023/12/13 09:25:48;;;;;;;1.55;1.40;;;;;;;;;;5072645;28;20095;-78
2023/12/13 09:28:16;;;;;;;8.60;1.80;;;;;;;;;;5037391;28;20049;-79
2023/12/13 09:30:49;;;;;;;2.92;1.67;;;;;;;;;;5029411;28;20049;-79
2023/12/13 09:33:17;;;;;;;5.32;2.85;;;;;;;;;;5052182;28;20052;-79
2023/12/13 09:35:47;;;;;;;7.55;3.63;;;;;;;;;;5066815;28;20048;-79
2023/12/13 09:38:14;;;;;;;5.43;3.55;;;;;;;;;;5029961;28;20045;-79
2023/12/13 09:40:44;;;;;;;2.95;2.65;;;;;;;;;;5078493;28;20056;-79
2023/12/13 09:43:13;;;;;;;3.08;2.15;;;;;;;;;;5062803;28;20049;-79
2023/12/13 09:45:43;;;;;;;3.35;1.98;;;;;;;;;;5058554;28;20375;-79
2023/12/13 09:48:14;;;;;;;2.10;1.50;;;;;;;;;;5024720;28;20048;-79
2023/12/13 09:50:43;;;;;;;4.38;1.92;;;;;;;;;;5041348;28;20056;-79
2023/12/13 09:53:15;;;;;;;5.88;2.10;;;;;;;;;;5055261;28;20052;-79
2023/12/13 09:55:48;;;;;;;4.47;2.25;;;;;;;;;;5055919;28;20079;-78
2023/12/13 09:58:15;;;;;;;2.80;1.55;;;;;;;;;;5065703;28;20053;-78
2023/12/13 10:00:43;;;;;;;3.60;2.20;;;;;;;;;;5081882;28;20029;-78
2023/12/13 10:03:10;;;;;;;2.67;2.08;;;;;;;;;;5064331;28;20045;-79
2023/12/13 10:05:42;;;;;;;1.85;1.45;;;;;;;;;;5049347;28;20040;-78
2023/12/13 10:08:11;;;;;;;4.07;1.90;;;;;;;;;;5043109;28;20036;-78
2023/12/13 10:10:39;;;;;;;2.28;1.52;;;;;;;;;;5046224;28;20044;-79
2023/12/13 10:13:09;;;;;;;2.35;1.60;;;;;;;;;;5050226;28;20303;-78
2023/12/13 10:15:37;;;;;;;2.97;2.05;;;;;;;;;;5050980;28;20049;-79
2023/12/13 10:18:06;;;;;;;7.07;2.90;;;;;;;;;;5051675;28;20239;-78
2023/12/13 10:20:34;;;;;;;3.08;2.25;;;;;;;;;;5042548;28;20047;-78
2023/12/13 10:23:05;;;;;;;4.00;3.60;;;;;;;;;;5056283;28;20043;-78
2023/12/13 10:25:33;;;;;;;2.90;2.70;;;;;;;;;;5063223;28;20055;-78
2023/12/13 10:28:04;;;;;;;2.72;1.73;;;;;;;;;;5027910;28;20063;-79
2023/12/13 10:30:32;;;;;;;1.60;1.38;;;;;;;;;;5026935;28;20052;-78
2023/12/13 10:32:59;;;;;;;1.98;1.52;;;;;;;;;;5058238;28;20053;-78
2023/12/13 10:35:27;;;;;;;1.77;1.38;;;;;;;;;;5074233;28;20053;-78
2023/12/13 10:37:56;;;;;;;2.30;1.45;;;;;;;;;;5059968;28;20044;-78
2023/12/13 10:40:25;;;;;;;1.48;1.02;;;;;;;;;;5064468;28;20041;-79
2023/12/13 10:42:56;;;;;;;1.33;1.23;;;;;;;;;;5026278;28;20064;-78
2023/12/13 10:45:24;;;;;;;3.10;1.30;;;;;;;;;;5030386;28;20056;-79
2023/12/13 10:47:59;;;;;;;1.20;1.02;;;;;;;;;;5068459;28;20052;-79
2023/12/13 10:50:27;;;;;;;1.27;1.05;;;;;;;;;;5026132;28;20056;-79
2023/12/13 10:52:55;;;;;;;2.78;1.55;;;;;;;;;;5046791;28;20041;-79
2023/12/13 10:55:26;;;;;;;1.80;1.38;;;;;;;;;;5067564;28;20053;-79
2023/12/13 10:57:55;;;;;;;2.53;1.15;;;;;;;;;;5045716;28;20049;-79
2023/12/13 11:00:26;;;;;;;1.85;1.17;;;;;;;;;;5074516;28;20041;-79
2023/12/13 11:02:57;;;;;;;4.00;1.38;;;;;;;;;;5033265;28;20057;-79
2023/12/13 11:05:25;;;;;;;3.75;1.92;;;;;;;;;;5047466;28;20526;-80
2023/12/13 11:07:52;;;;;;;1.88;1.42;;;;;;;;;;5051913;28;20064;-78
2023/12/13 11:10:22;;;;;;;3.40;1.50;;;;;;;;;;5063799;28;20041;-79
2023/12/13 11:12:52;;;;;;;1.73;1.23;;;;;;;;;;5027563;28;20049;-79
2023/12/13 11:15:20;;;;;;;2.50;1.10;;;;;;;;;;5046783;28;20055;-79
2023/12/13 11:17:50;;;;;;;2.10;1.67;;;;;;;;;;5044904;28;20071;-79
2023/12/13 11:20:17;;;;;;;3.53;1.77;;;;;;;;;;5048874;28;20044;-79
2023/12/13 11:22:47;;;;;;;2.90;1.85;;;;;;;;;;5036723;28;20052;-79
2023/12/13 11:25:21;;;;;;;3.70;1.40;;;;;;;;;;5033094;28;20059;-79
2023/12/13 11:27:55;;;;;;;1.83;1.50;;;;;;;;;;5026603;28;20052;-79
2023/12/13 11:30:23;;;;;;;2.63;1.75;;;;;;;;;;5063662;28;20060;-79
2023/12/13 11:32:51;;;;;;;4.00;1.48;;;;;;;;;;5053166;28;20053;-79
2023/12/13 11:35:20;;;;;;;2.67;1.67;;;;;;;;;;5071950;28;20056;-78
2023/12/13 11:37:51;;;;;;;3.78;1.58;;;;;;;;;;5049604;28;20056;-79
2023/12/13 11:40:18;;;;;;;1.92;1.55;;;;;;;;;;5066250;28;20041;-79
2023/12/13 11:42:49;;;;;;;2.88;1.48;;;;;;;;;;5037541;28;20045;-79
2023/12/13 11:45:20;;;;;;;5.32;2.10;;;;;;;;;;5044624;28;20044;-79
2023/12/13 11:47:49;;;;;;;3.28;1.85;;;;;;;;;;5037783;28;20052;-79
2023/12/13 11:50:19;;;;;;;5.50;1.75;;;;;;;;;;5026853;28;20072;-79
2023/12/13 11:52:46;;;;;;;2.42;1.35;;;;;;;;;;5041375;28;20040;-79
2023/12/13 11:55:14;;;;;;;1.60;1.25;;;;;;;;;;5046501;28;20036;-79
2023/12/13 11:57:44;;;;;;;2.00;1.40;;;;;;;;;;5048623;28;20060;-79
2023/12/13 12:00:12;;;;;;;3.20;2.13;;;;;;;;;;5043693;28;20048;-79
2023/12/13 12:02:43;;;;;;;5.00;1.83;;;;;;;;;;5044424;28;20044;-80
2023/12/13 12:05:14;;;;;;;2.35;1.52;;;;;;;;;;5047499;28;20056;-79
2023/12/13 12:07:44;;;;;;;2.85;1.55;;;;;;;;;;5030897;28;20049;-80
2023/12/13 12:10:14;;;;;;;3.85;1.80;;;;;;;;;;5059087;28;20041;-80
2023/12/13 12:12:42;;;;;;;1.42;1.15;;;;;;;;;;5064603;28;20048;-80
2023/12/13 12:15:09;;;;;;;1.90;1.27;;;;;;;;;;5047944;28;20048;-79
2023/12/13 12:17:37;;;;;;;1.75;1.65;;;;;;;;;;5048772;28;20045;-80
2023/12/13 12:20:09;;;;;;;1.70;1.60;;;;;;;;;;5052090;28;20048;-80
2023/12/13 12:22:39;;;;;;;2.75;1.70;;;;;;;;;;5052696;28;20036;-80
2023/12/13 12:25:08;;;;;;;1.85;1.45;;;;;;;;;;5045125;28;20131;-79
2023/12/13 12:27:35;;;;;;;5.95;1.98;;;;;;;;;;5043035;28;20049;-79
2023/12/13 12:30:03;;;;;;;1.75;1.20;;;;;;;;;;5052547;28;20128;-80
2023/12/13 12:32:33;;;;;;;3.42;2.28;;;;;;;;;;5053683;28;20128;-79
2023/12/13 12:35:02;;;;;;;2.03;1.42;;;;;;;;;;5042225;28;20062;-79
2023/12/13 12:37:31;;;;;;;2.65;1.80;;;;;;;;;;5053869;28;20040;-80
2023/12/13 12:39:58;;;;;;;2.78;2.00;;;;;;;;;;5046796;28;20053;-79
2023/12/13 12:42:26;;;;;;;4.15;1.70;;;;;;;;;;5074925;28;20072;-79
2023/12/13 12:44:54;;;;;;;4.25;1.80;;;;;;;;;;5026221;28;20127;-79
2023/12/13 12:47:21;;;;;;;2.83;1.90;;;;;;;;;;5051487;28;20041;-79
2023/12/13 12:49:53;;;;;;;2.75;2.30;;;;;;;;;;5050758;28;20052;-79
2023/12/13 12:52:23;;;;;;;12.77;3.97;;;;;;;;;;5048502;28;20045;-79
2023/12/13 12:54:54;;;;;;;15.18;3.33;;;;;;;;;;5043079;28;20064;-79
2023/12/13 12:57:23;;;;;;;15.18;3.88;;;;;;;;;;5040064;28;20076;-80
2023/12/13 12:59:50;;;;;;;5.07;1.98;;;;;;;;;;5032942;28;20057;-80
2023/12/13 13:02:21;;;;;;;2.47;1.77;;;;;;;;;;5039368;28;20045;-80
2023/12/13 13:04:50;;;;;;;4.82;2.30;;;;;;;;;;5053113;28;20046;-80
2023/12/13 13:07:22;;;;;;;3.97;2.40;;;;;;;;;;5044498;28;20056;-80
2023/12/13 13:09:50;;;;;;;8.50;2.70;;;;;;;;;;5035672;28;20060;-80
2023/12/13 13:12:20;;;;;;;3.08;2.20;;;;;;;;;;5014189;28;20057;-80
2023/12/13 13:14:48;;;;;;;4.40;3.13;;;;;;;;;;5054651;28;20049;-80
2023/12/13 13:17:19;;;;;;;3.78;2.50;;;;;;;;;;5030181;28;20065;-80
2023/12/13 13:19:47;;;;;;;3.13;2.05;;;;;;;;;;5054326;28;20041;-80
2023/12/13 13:22:17;;;;;;;3.92;2.50;;;;;;;;;;5049335;28;20041;-80
2023/12/13 13:24:44;;;;;;;3.42;2.47;;;;;;;;;;5034753;28;20056;-80
2023/12/13 13:27:12;;;;;;;3.95;2.33;;;;;;;;;;5068948;28;20068;-80
2023/12/13 13:29:43;;;;;;;4.07;2.75;;;;;;;;;;5067956;28;20053;-80
2023/12/13 13:32:10;;;;;;;2.47;1.92;;;;;;;;;;5036734;28;20059;-80
2023/12/13 13:34:37;;;;;;;2.42;2.13;;;;;;;;;;5033691;28;20052;-80
2023/12/13 13:37:05;;;;;;;2.80;1.98;;;;;;;;;;5035180;28;20052;-79
2023/12/13 13:39:35;;;;;;;2.85;1.88;;;;;;;;;;5054824;28;20037;-80
2023/12/13 13:42:05;;;;;;;1.90;1.60;;;;;;;;;;5043073;28;20549;-80
2023/12/13 13:44:33;;;;;;;5.53;1.88;;;;;;;;;;5035531;28;20049;-80
2023/12/13 13:47:01;;;;;;;2.90;1.73;;;;;;;;;;5030686;28;20057;-80
2023/12/13 13:49:29;;;;;;;4.85;1.90;;;;;;;;;;5069406;28;20052;-80
2023/12/13 13:51:56;;;;;;;2.47;1.88;;;;;;;;;;5054982;23;20060;-79
2023/12/13 13:54:25;;;;;;;2.25;1.80;;;;;;;;;;5036333;28;20049;-78
2023/12/13 13:56:53;;;;;;;1.95;1.77;;;;;;;;;;5019193;28;20502;-78
2023/12/13 13:59:22;;;;;;;3.35;2.03;;;;;;;;;;5032427;28;20045;-78
2023/12/13 14:01:50;;;;;;;4.35;2.80;;;;;;;;;;5019848;28;20055;-78
2023/12/13 14:04:18;;;;;;;18.65;4.22;;;;;;;;;;5017027;28;20423;-78
2023/12/13 14:06:48;;;;;;;8.82;2.97;;;;;;;;;;5029730;28;20704;-78
2023/12/13 14:09:19;;;;;;;5.57;2.38;;;;;;;;;;5030495;28;20064;-78
2023/12/13 14:11:48;;;;;;;4.57;1.95;;;;;;;;;;5030319;28;20053;-78
2023/12/13 14:14:18;;;;;;;3.13;1.35;;;;;;;;;;5019058;28;20072;-78
2023/12/13 14:16:45;;;;;;;4.80;1.38;;;;;;;;;;5011207;28;20049;-78
2023/12/13 14:19:14;;;;;;;2.55;1.10;;;;;;;;;;5032025;28;20059;-78
2023/12/13 14:21:44;;;;;;;1.48;1.00;;;;;;;;;;5032107;28;20501;-79
2023/12/13 14:24:14;;;;;;;4.20;1.63;;;;;;;;;;5017957;28;20380;-78
2023/12/13 14:26:41;;;;;;;2.13;1.48;;;;;;;;;;5017955;28;20045;-78
2023/12/13 14:29:09;;;;;;;8.35;3.40;;;;;;;;;;5052167;28;20052;-78
2023/12/13 14:31:36;;;;;;;1.80;1.52;;;;;;;;;;5015336;28;20052;-78
2023/12/13 14:34:03;;;;;;;2.28;1.98;;;;;;;;;;5019838;28;20431;-78
2023/12/13 14:36:33;;;;;;;2.78;1.95;;;;;;;;;;5050540;28;20399;-78
2023/12/13 14:39:02;;;;;;;3.22;1.98;;;;;;;;;;5015554;28;20052;-78
2023/12/13 14:41:31;;;;;;;4.15;2.13;;;;;;;;;;5004685;28;20496;-78
2023/12/13 14:43:58;;;;;;;2.65;2.00;;;;;;;;;;5017125;28;20062;-78
2023/12/13 14:46:26;;;;;;;4.85;3.42;;;;;;;;;;5015576;28;20395;-78
2023/12/13 14:48:55;;;;;;;3.38;2.28;;;;;;;;;;5031885;28;20064;-78
2023/12/13 14:51:27;;;;;;;3.72;2.90;;;;;;;;;;5002789;28;20072;-78
2023/12/13 14:53:56;;;;;;;4.75;3.10;;;;;;;;;;5017669;28;20060;-78